sensor_id;sensor_type;location;lat;lon;timestamp;P1;durP1;ratioP1;P2;durP2;ratioP2
51814;SDS011;37874;53.158;6.766;2022-07-24T00:00:41;1.10;;;0.80;;
51814;SDS011;37874;53.158;6.766;2022-07-24T00:03:07;1.50;;;1.10;;
51814;SDS011;37874;53.158;6.766;2022-07-24T00:05:33;1.10;;;0.80;;
51814;SDS011;37874;53.158;6.766;2022-07-24T00:07:58;1.35;;;0.90;;
51814;SDS011;37874;53.158;6.766;2022-07-24T00:10:24;1.08;;;0.85;;
51814;SDS011;37874;53.158;6.766;2022-07-24T00:12:50;1.20;;;0.90;;
51814;SDS011;37874;53.158;6.766;2022-07-24T00:15:16;1.30;;;0.90;;
51814;SDS011;37874;53.158;6.766;2022-07-24T00:17:42;1.20;;;0.80;;
51814;SDS011;37874;53.158;6.766;2022-07-24T00:20:08;1.20;;;0.80;;
51814;SDS011;37874;53.158;6.766;2022-07-24T00:22:34;1.30;;;0.90;;
51814;SDS011;37874;53.158;6.766;2022-07-24T00:25:00;1.30;;;0.90;;
51814;SDS011;37874;53.158;6.766;2022-07-24T00:27:26;1.23;;;0.98;;
51814;SDS011;37874;53.158;6.766;2022-07-24T00:29:52;1.20;;;0.80;;
51814;SDS011;37874;53.158;6.766;2022-07-24T00:32:17;1.48;;;0.90;;
51814;SDS011;37874;53.158;6.766;2022-07-24T00:34:43;1.50;;;0.85;;
51814;SDS011;37874;53.158;6.766;2022-07-24T00:37:08;1.42;;;0.93;;
51814;SDS011;37874;53.158;6.766;2022-07-24T00:39:34;1.67;;;1.23;;
51814;SDS011;37874;53.158;6.766;2022-07-24T00:42:00;1.20;;;0.90;;
51814;SDS011;37874;53.158;6.766;2022-07-24T00:44:26;1.50;;;1.08;;
51814;SDS011;37874;53.158;6.766;2022-07-24T00:46:51;1.60;;;1.10;;
51814;SDS011;37874;53.158;6.766;2022-07-24T00:49:18;1.20;;;0.82;;
51814;SDS011;37874;53.158;6.766;2022-07-24T00:51:46;1.67;;;1.20;;
51814;SDS011;37874;53.158;6.766;2022-07-24T00:54:14;1.50;;;1.10;;
51814;SDS011;37874;53.158;6.766;2022-07-24T00:56:41;1.90;;;1.23;;
51814;SDS011;37874;53.158;6.766;2022-07-24T00:59:09;1.48;;;1.13;;
51814;SDS011;37874;53.158;6.766;2022-07-24T01:01:35;1.77;;;1.35;;
51814;SDS011;37874;53.158;6.766;2022-07-24T01:04:00;1.40;;;1.00;;
51814;SDS011;37874;53.158;6.766;2022-07-24T01:06:26;1.40;;;1.10;;
51814;SDS011;37874;53.158;6.766;2022-07-24T01:08:52;1.58;;;1.20;;
51814;SDS011;37874;53.158;6.766;2022-07-24T01:11:18;1.50;;;1.20;;
51814;SDS011;37874;53.158;6.766;2022-07-24T01:13:46;1.58;;;1.30;;
51814;SDS011;37874;53.158;6.766;2022-07-24T01:16:12;1.65;;;1.23;;
51814;SDS011;37874;53.158;6.766;2022-07-24T01:18:38;2.00;;;1.42;;
51814;SDS011;37874;53.158;6.766;2022-07-24T01:21:04;1.50;;;1.20;;
51814;SDS011;37874;53.158;6.766;2022-07-24T01:23:30;1.67;;;1.38;;
51814;SDS011;37874;53.158;6.766;2022-07-24T01:25:56;1.42;;;1.10;;
51814;SDS011;37874;53.158;6.766;2022-07-24T01:28:22;1.77;;;1.30;;
51814;SDS011;37874;53.158;6.766;2022-07-24T01:30:48;7.82;;;1.33;;
51814;SDS011;37874;53.158;6.766;2022-07-24T01:33:14;2.05;;;1.48;;
51814;SDS011;37874;53.158;6.766;2022-07-24T01:35:40;1.80;;;1.30;;
51814;SDS011;37874;53.158;6.766;2022-07-24T01:38:09;1.60;;;1.20;;
51814;SDS011;37874;53.158;6.766;2022-07-24T01:40:36;1.65;;;1.30;;
51814;SDS011;37874;53.158;6.766;2022-07-24T01:43:02;1.92;;;1.40;;
51814;SDS011;37874;53.158;6.766;2022-07-24T01:45:28;1.48;;;1.20;;
51814;SDS011;37874;53.158;6.766;2022-07-24T01:47:53;1.88;;;1.45;;
51814;SDS011;37874;53.158;6.766;2022-07-24T01:50:19;1.88;;;1.50;;
51814;SDS011;37874;53.158;6.766;2022-07-24T01:52:45;1.85;;;1.48;;
51814;SDS011;37874;53.158;6.766;2022-07-24T01:55:11;1.60;;;1.15;;
51814;SDS011;37874;53.158;6.766;2022-07-24T01:57:37;1.77;;;1.20;;
51814;SDS011;37874;53.158;6.766;2022-07-24T02:00:03;1.75;;;1.30;;
51814;SDS011;37874;53.158;6.766;2022-07-24T02:02:30;2.28;;;1.70;;
51814;SDS011;37874;53.158;6.766;2022-07-24T02:04:56;1.80;;;1.50;;
51814;SDS011;37874;53.158;6.766;2022-07-24T02:07:22;1.80;;;1.40;;
51814;SDS011;37874;53.158;6.766;2022-07-24T02:09:47;1.92;;;1.40;;
51814;SDS011;37874;53.158;6.766;2022-07-24T02:12:13;1.80;;;1.50;;
51814;SDS011;37874;53.158;6.766;2022-07-24T02:14:45;1.70;;;1.40;;
51814;SDS011;37874;53.158;6.766;2022-07-24T02:17:10;1.70;;;1.40;;
51814;SDS011;37874;53.158;6.766;2022-07-24T02:19:37;1.73;;;1.40;;
51814;SDS011;37874;53.158;6.766;2022-07-24T02:22:02;1.80;;;1.45;;
51814;SDS011;37874;53.158;6.766;2022-07-24T02:24:29;1.90;;;1.48;;
51814;SDS011;37874;53.158;6.766;2022-07-24T02:26:55;1.98;;;1.58;;
51814;SDS011;37874;53.158;6.766;2022-07-24T02:29:21;2.05;;;1.67;;
51814;SDS011;37874;53.158;6.766;2022-07-24T02:31:47;2.00;;;1.65;;
51814;SDS011;37874;53.158;6.766;2022-07-24T02:34:12;2.10;;;1.50;;
51814;SDS011;37874;53.158;6.766;2022-07-24T02:36:38;1.90;;;1.45;;
51814;SDS011;37874;53.158;6.766;2022-07-24T02:39:04;1.98;;;1.60;;
51814;SDS011;37874;53.158;6.766;2022-07-24T02:41:30;1.85;;;1.38;;
51814;SDS011;37874;53.158;6.766;2022-07-24T02:43:56;2.35;;;1.65;;
51814;SDS011;37874;53.158;6.766;2022-07-24T02:46:22;2.00;;;1.60;;
51814;SDS011;37874;53.158;6.766;2022-07-24T02:48:48;2.03;;;1.50;;
51814;SDS011;37874;53.158;6.766;2022-07-24T02:51:14;1.83;;;1.45;;
51814;SDS011;37874;53.158;6.766;2022-07-24T02:53:40;2.20;;;1.80;;
51814;SDS011;37874;53.158;6.766;2022-07-24T02:56:05;2.15;;;1.67;;
51814;SDS011;37874;53.158;6.766;2022-07-24T02:58:31;2.05;;;1.52;;
51814;SDS011;37874;53.158;6.766;2022-07-24T03:00:57;2.20;;;1.70;;
51814;SDS011;37874;53.158;6.766;2022-07-24T03:03:23;2.15;;;1.77;;
51814;SDS011;37874;53.158;6.766;2022-07-24T03:05:49;2.38;;;1.80;;
51814;SDS011;37874;53.158;6.766;2022-07-24T03:08:15;2.20;;;1.70;;
51814;SDS011;37874;53.158;6.766;2022-07-24T03:10:41;2.15;;;1.73;;
51814;SDS011;37874;53.158;6.766;2022-07-24T03:13:07;2.10;;;1.80;;
51814;SDS011;37874;53.158;6.766;2022-07-24T03:15:33;2.35;;;1.88;;
51814;SDS011;37874;53.158;6.766;2022-07-24T03:17:59;2.13;;;1.73;;
51814;SDS011;37874;53.158;6.766;2022-07-24T03:20:26;2.45;;;2.10;;
51814;SDS011;37874;53.158;6.766;2022-07-24T03:22:54;2.38;;;1.98;;
51814;SDS011;37874;53.158;6.766;2022-07-24T03:25:20;2.35;;;2.00;;
51814;SDS011;37874;53.158;6.766;2022-07-24T03:27:47;2.10;;;1.60;;
51814;SDS011;37874;53.158;6.766;2022-07-24T03:30:13;2.63;;;2.15;;
51814;SDS011;37874;53.158;6.766;2022-07-24T03:32:40;2.22;;;1.90;;
51814;SDS011;37874;53.158;6.766;2022-07-24T03:35:06;2.15;;;1.80;;
51814;SDS011;37874;53.158;6.766;2022-07-24T03:37:32;2.40;;;1.92;;
51814;SDS011;37874;53.158;6.766;2022-07-24T03:39:58;2.17;;;1.80;;
51814;SDS011;37874;53.158;6.766;2022-07-24T03:42:24;2.17;;;1.85;;
51814;SDS011;37874;53.158;6.766;2022-07-24T03:44:50;2.20;;;1.92;;
51814;SDS011;37874;53.158;6.766;2022-07-24T03:47:16;3.53;;;2.10;;
51814;SDS011;37874;53.158;6.766;2022-07-24T03:49:42;2.28;;;1.90;;
51814;SDS011;37874;53.158;6.766;2022-07-24T03:52:08;2.35;;;2.00;;
51814;SDS011;37874;53.158;6.766;2022-07-24T03:54:34;2.20;;;1.80;;
51814;SDS011;37874;53.158;6.766;2022-07-24T03:57:00;2.60;;;2.20;;
51814;SDS011;37874;53.158;6.766;2022-07-24T03:59:25;2.40;;;1.92;;
51814;SDS011;37874;53.158;6.766;2022-07-24T04:01:51;2.38;;;2.00;;
51814;SDS011;37874;53.158;6.766;2022-07-24T04:04:17;2.40;;;2.00;;
51814;SDS011;37874;53.158;6.766;2022-07-24T04:06:43;2.50;;;1.95;;
51814;SDS011;37874;53.158;6.766;2022-07-24T04:09:09;2.60;;;2.30;;
51814;SDS011;37874;53.158;6.766;2022-07-24T04:11:35;2.50;;;2.05;;
51814;SDS011;37874;53.158;6.766;2022-07-24T04:14:01;2.58;;;2.17;;
51814;SDS011;37874;53.158;6.766;2022-07-24T04:16:27;2.63;;;2.00;;
51814;SDS011;37874;53.158;6.766;2022-07-24T04:18:53;2.50;;;2.30;;
51814;SDS011;37874;53.158;6.766;2022-07-24T04:21:19;2.28;;;1.80;;
51814;SDS011;37874;53.158;6.766;2022-07-24T04:23:45;2.58;;;2.10;;
51814;SDS011;37874;53.158;6.766;2022-07-24T04:26:11;2.30;;;2.00;;
51814;SDS011;37874;53.158;6.766;2022-07-24T04:28:37;2.38;;;2.00;;
51814;SDS011;37874;53.158;6.766;2022-07-24T04:31:04;2.63;;;2.10;;
51814;SDS011;37874;53.158;6.766;2022-07-24T04:33:30;2.45;;;2.05;;
51814;SDS011;37874;53.158;6.766;2022-07-24T04:35:56;2.42;;;2.08;;
51814;SDS011;37874;53.158;6.766;2022-07-24T04:38:21;2.25;;;2.00;;
51814;SDS011;37874;53.158;6.766;2022-07-24T04:40:47;2.33;;;1.85;;
51814;SDS011;37874;53.158;6.766;2022-07-24T04:43:13;2.35;;;2.00;;
51814;SDS011;37874;53.158;6.766;2022-07-24T04:45:39;2.13;;;1.75;;
51814;SDS011;37874;53.158;6.766;2022-07-24T04:48:05;2.30;;;1.95;;
51814;SDS011;37874;53.158;6.766;2022-07-24T04:50:31;2.25;;;1.98;;
51814;SDS011;37874;53.158;6.766;2022-07-24T04:52:57;2.58;;;2.13;;
51814;SDS011;37874;53.158;6.766;2022-07-24T04:55:23;2.20;;;1.90;;
51814;SDS011;37874;53.158;6.766;2022-07-24T04:57:49;2.40;;;1.98;;
51814;SDS011;37874;53.158;6.766;2022-07-24T05:00:15;2.65;;;2.05;;
51814;SDS011;37874;53.158;6.766;2022-07-24T05:02:41;2.30;;;1.98;;
51814;SDS011;37874;53.158;6.766;2022-07-24T05:05:07;2.38;;;2.10;;
51814;SDS011;37874;53.158;6.766;2022-07-24T05:07:33;2.53;;;2.17;;
51814;SDS011;37874;53.158;6.766;2022-07-24T05:09:59;2.63;;;2.08;;
51814;SDS011;37874;53.158;6.766;2022-07-24T05:12:25;2.67;;;2.03;;
51814;SDS011;37874;53.158;6.766;2022-07-24T05:14:51;2.28;;;1.95;;
51814;SDS011;37874;53.158;6.766;2022-07-24T05:17:18;2.17;;;1.92;;
51814;SDS011;37874;53.158;6.766;2022-07-24T05:19:43;2.40;;;2.10;;
51814;SDS011;37874;53.158;6.766;2022-07-24T05:22:09;2.47;;;2.10;;
51814;SDS011;37874;53.158;6.766;2022-07-24T05:24:35;2.72;;;2.38;;
51814;SDS011;37874;53.158;6.766;2022-07-24T05:27:01;2.53;;;2.13;;
51814;SDS011;37874;53.158;6.766;2022-07-24T05:29:27;2.40;;;2.10;;
51814;SDS011;37874;53.158;6.766;2022-07-24T05:31:53;2.40;;;1.98;;
51814;SDS011;37874;53.158;6.766;2022-07-24T05:34:22;2.33;;;1.92;;
51814;SDS011;37874;53.158;6.766;2022-07-24T05:36:49;2.25;;;1.90;;
51814;SDS011;37874;53.158;6.766;2022-07-24T05:39:15;2.28;;;1.92;;
51814;SDS011;37874;53.158;6.766;2022-07-24T05:41:41;2.45;;;2.13;;
51814;SDS011;37874;53.158;6.766;2022-07-24T05:44:07;2.25;;;1.88;;
51814;SDS011;37874;53.158;6.766;2022-07-24T05:46:33;2.40;;;2.10;;
51814;SDS011;37874;53.158;6.766;2022-07-24T05:48:59;2.60;;;2.20;;
51814;SDS011;37874;53.158;6.766;2022-07-24T05:51:25;2.40;;;1.92;;
51814;SDS011;37874;53.158;6.766;2022-07-24T05:53:51;2.67;;;2.10;;
51814;SDS011;37874;53.158;6.766;2022-07-24T05:56:17;2.38;;;1.90;;
51814;SDS011;37874;53.158;6.766;2022-07-24T05:58:43;2.30;;;1.90;;
51814;SDS011;37874;53.158;6.766;2022-07-24T06:01:09;2.30;;;2.00;;
51814;SDS011;37874;53.158;6.766;2022-07-24T06:03:35;2.50;;;2.10;;
51814;SDS011;37874;53.158;6.766;2022-07-24T06:06:03;2.80;;;2.10;;
51814;SDS011;37874;53.158;6.766;2022-07-24T06:08:29;2.30;;;1.88;;
51814;SDS011;37874;53.158;6.766;2022-07-24T06:10:55;2.50;;;2.10;;
51814;SDS011;37874;53.158;6.766;2022-07-24T06:13:21;2.60;;;2.05;;
51814;SDS011;37874;53.158;6.766;2022-07-24T06:15:47;2.65;;;2.20;;
51814;SDS011;37874;53.158;6.766;2022-07-24T06:18:13;2.45;;;1.95;;
51814;SDS011;37874;53.158;6.766;2022-07-24T06:20:39;2.50;;;2.00;;
51814;SDS011;37874;53.158;6.766;2022-07-24T06:23:05;2.63;;;2.05;;
51814;SDS011;37874;53.158;6.766;2022-07-24T06:25:31;2.95;;;2.10;;
51814;SDS011;37874;53.158;6.766;2022-07-24T06:27:57;2.40;;;2.10;;
51814;SDS011;37874;53.158;6.766;2022-07-24T06:30:24;2.40;;;2.10;;
51814;SDS011;37874;53.158;6.766;2022-07-24T06:32:52;2.58;;;2.00;;
51814;SDS011;37874;53.158;6.766;2022-07-24T06:35:20;2.47;;;1.92;;
51814;SDS011;37874;53.158;6.766;2022-07-24T06:37:46;2.35;;;1.90;;
51814;SDS011;37874;53.158;6.766;2022-07-24T06:40:12;2.33;;;2.05;;
51814;SDS011;37874;53.158;6.766;2022-07-24T06:42:38;2.42;;;2.00;;
51814;SDS011;37874;53.158;6.766;2022-07-24T06:45:04;2.88;;;2.45;;
51814;SDS011;37874;53.158;6.766;2022-07-24T06:47:31;2.65;;;2.30;;
51814;SDS011;37874;53.158;6.766;2022-07-24T06:49:57;2.92;;;2.63;;
51814;SDS011;37874;53.158;6.766;2022-07-24T06:52:22;3.80;;;3.08;;
51814;SDS011;37874;53.158;6.766;2022-07-24T06:54:49;3.33;;;2.97;;
51814;SDS011;37874;53.158;6.766;2022-07-24T06:57:15;3.35;;;2.88;;
51814;SDS011;37874;53.158;6.766;2022-07-24T06:59:43;3.40;;;3.05;;
51814;SDS011;37874;53.158;6.766;2022-07-24T07:02:10;4.25;;;3.45;;
51814;SDS011;37874;53.158;6.766;2022-07-24T07:04:38;4.10;;;3.70;;
51814;SDS011;37874;53.158;6.766;2022-07-24T07:07:04;3.75;;;3.33;;
51814;SDS011;37874;53.158;6.766;2022-07-24T07:09:30;3.97;;;3.58;;
51814;SDS011;37874;53.158;6.766;2022-07-24T07:11:55;4.70;;;4.20;;
51814;SDS011;37874;53.158;6.766;2022-07-24T07:14:21;4.70;;;4.20;;
51814;SDS011;37874;53.158;6.766;2022-07-24T07:16:47;4.47;;;4.05;;
51814;SDS011;37874;53.158;6.766;2022-07-24T07:19:14;4.20;;;3.80;;
51814;SDS011;37874;53.158;6.766;2022-07-24T07:21:40;4.25;;;3.80;;
51814;SDS011;37874;53.158;6.766;2022-07-24T07:24:06;4.82;;;4.32;;
51814;SDS011;37874;53.158;6.766;2022-07-24T07:26:32;4.35;;;3.95;;
51814;SDS011;37874;53.158;6.766;2022-07-24T07:28:58;4.57;;;4.10;;
51814;SDS011;37874;53.158;6.766;2022-07-24T07:31:24;5.10;;;4.60;;
51814;SDS011;37874;53.158;6.766;2022-07-24T07:33:51;4.57;;;4.18;;
51814;SDS011;37874;53.158;6.766;2022-07-24T07:36:17;4.95;;;4.45;;
51814;SDS011;37874;53.158;6.766;2022-07-24T07:38:44;5.18;;;4.65;;
51814;SDS011;37874;53.158;6.766;2022-07-24T07:41:10;5.05;;;4.55;;
51814;SDS011;37874;53.158;6.766;2022-07-24T07:43:37;4.93;;;4.28;;
51814;SDS011;37874;53.158;6.766;2022-07-24T07:46:04;4.53;;;4.13;;
51814;SDS011;37874;53.158;6.766;2022-07-24T07:48:30;5.18;;;4.68;;
51814;SDS011;37874;53.158;6.766;2022-07-24T07:50:57;5.18;;;4.63;;
51814;SDS011;37874;53.158;6.766;2022-07-24T07:53:23;5.00;;;4.50;;
51814;SDS011;37874;53.158;6.766;2022-07-24T07:55:49;5.28;;;4.78;;
51814;SDS011;37874;53.158;6.766;2022-07-24T07:58:20;4.80;;;4.30;;
51814;SDS011;37874;53.158;6.766;2022-07-24T08:00:47;5.20;;;4.70;;
51814;SDS011;37874;53.158;6.766;2022-07-24T08:03:13;4.97;;;4.47;;
51814;SDS011;37874;53.158;6.766;2022-07-24T08:05:40;4.55;;;4.07;;
51814;SDS011;37874;53.158;6.766;2022-07-24T08:08:05;4.50;;;3.95;;
51814;SDS011;37874;53.158;6.766;2022-07-24T08:10:32;4.53;;;3.92;;
51814;SDS011;37874;53.158;6.766;2022-07-24T08:12:58;4.10;;;3.70;;
51814;SDS011;37874;53.158;6.766;2022-07-24T08:15:24;4.20;;;3.67;;
51814;SDS011;37874;53.158;6.766;2022-07-24T08:17:51;3.78;;;3.38;;
51814;SDS011;37874;53.158;6.766;2022-07-24T08:20:21;3.92;;;3.30;;
51814;SDS011;37874;53.158;6.766;2022-07-24T08:22:49;3.50;;;3.10;;
51814;SDS011;37874;53.158;6.766;2022-07-24T08:25:15;3.38;;;3.08;;
51814;SDS011;37874;53.158;6.766;2022-07-24T08:27:41;3.97;;;2.50;;
51814;SDS011;37874;53.158;6.766;2022-07-24T08:30:08;2.97;;;2.40;;
51814;SDS011;37874;53.158;6.766;2022-07-24T08:32:35;2.80;;;2.00;;
51814;SDS011;37874;53.158;6.766;2022-07-24T08:35:01;2.70;;;2.10;;
51814;SDS011;37874;53.158;6.766;2022-07-24T08:37:27;2.20;;;1.70;;
51814;SDS011;37874;53.158;6.766;2022-07-24T08:39:53;2.55;;;1.70;;
51814;SDS011;37874;53.158;6.766;2022-07-24T08:42:20;2.20;;;1.77;;
51814;SDS011;37874;53.158;6.766;2022-07-24T08:44:46;2.30;;;1.67;;
51814;SDS011;37874;53.158;6.766;2022-07-24T08:47:14;3.05;;;1.80;;
51814;SDS011;37874;53.158;6.766;2022-07-24T08:49:40;2.28;;;1.70;;
51814;SDS011;37874;53.158;6.766;2022-07-24T08:52:11;2.10;;;1.60;;
51814;SDS011;37874;53.158;6.766;2022-07-24T08:54:39;2.20;;;1.63;;
51814;SDS011;37874;53.158;6.766;2022-07-24T08:57:05;2.38;;;1.75;;
51814;SDS011;37874;53.158;6.766;2022-07-24T08:59:32;2.35;;;1.73;;
51814;SDS011;37874;53.158;6.766;2022-07-24T09:01:58;1.92;;;1.50;;
51814;SDS011;37874;53.158;6.766;2022-07-24T09:04:34;2.45;;;1.85;;
51814;SDS011;37874;53.158;6.766;2022-07-24T09:09:38;2.47;;;1.98;;
51814;SDS011;37874;53.158;6.766;2022-07-24T09:12:12;3.03;;;1.73;;
51814;SDS011;37874;53.158;6.766;2022-07-24T09:14:42;2.40;;;1.90;;
51814;SDS011;37874;53.158;6.766;2022-07-24T09:17:17;3.72;;;1.88;;
51814;SDS011;37874;53.158;6.766;2022-07-24T09:19:57;2.88;;;1.90;;
51814;SDS011;37874;53.158;6.766;2022-07-24T09:25:18;3.05;;;1.70;;
51814;SDS011;37874;53.158;6.766;2022-07-24T09:27:52;2.10;;;1.60;;
51814;SDS011;37874;53.158;6.766;2022-07-24T09:30:30;2.20;;;1.70;;
51814;SDS011;37874;53.158;6.766;2022-07-24T09:33:05;2.20;;;1.80;;
51814;SDS011;37874;53.158;6.766;2022-07-24T09:35:34;2.03;;;1.55;;
51814;SDS011;37874;53.158;6.766;2022-07-24T09:38:03;2.70;;;1.90;;
51814;SDS011;37874;53.158;6.766;2022-07-24T09:40:32;3.13;;;1.73;;
51814;SDS011;37874;53.158;6.766;2022-07-24T09:48:25;2.10;;;1.52;;
51814;SDS011;37874;53.158;6.766;2022-07-24T09:50:56;2.15;;;1.65;;
51814;SDS011;37874;53.158;6.766;2022-07-24T09:53:25;2.97;;;1.90;;
51814;SDS011;37874;53.158;6.766;2022-07-24T09:56:26;2.40;;;1.73;;
51814;SDS011;37874;53.158;6.766;2022-07-24T10:01:12;2.22;;;1.70;;
51814;SDS011;37874;53.158;6.766;2022-07-24T10:03:43;2.63;;;1.80;;
51814;SDS011;37874;53.158;6.766;2022-07-24T10:06:11;2.53;;;1.80;;
51814;SDS011;37874;53.158;6.766;2022-07-24T10:08:39;2.33;;;1.70;;
51814;SDS011;37874;53.158;6.766;2022-07-24T10:11:06;2.50;;;1.90;;
51814;SDS011;37874;53.158;6.766;2022-07-24T10:13:33;2.22;;;1.60;;
51814;SDS011;37874;53.158;6.766;2022-07-24T10:21:16;2.80;;;2.08;;
51814;SDS011;37874;53.158;6.766;2022-07-24T10:23:52;2.20;;;1.63;;
51814;SDS011;37874;53.158;6.766;2022-07-24T10:31:45;2.38;;;1.60;;
51814;SDS011;37874;53.158;6.766;2022-07-24T10:36:54;2.22;;;1.42;;
51814;SDS011;37874;53.158;6.766;2022-07-24T10:39:25;3.42;;;1.60;;
51814;SDS011;37874;53.158;6.766;2022-07-24T10:41:59;2.85;;;1.60;;
51814;SDS011;37874;53.158;6.766;2022-07-24T10:44:26;2.35;;;1.75;;
51814;SDS011;37874;53.158;6.766;2022-07-24T12:50:35;2.20;;;1.67;;
51814;SDS011;37874;53.158;6.766;2022-07-24T12:53:06;3.08;;;1.60;;
51814;SDS011;37874;53.158;6.766;2022-07-24T12:55:33;4.72;;;1.60;;
51814;SDS011;37874;53.158;6.766;2022-07-24T12:58:01;2.47;;;1.50;;
51814;SDS011;37874;53.158;6.766;2022-07-24T13:00:28;2.30;;;1.60;;
51814;SDS011;37874;53.158;6.766;2022-07-24T13:02:54;2.17;;;1.50;;
51814;SDS011;37874;53.158;6.766;2022-07-24T13:05:37;2.28;;;1.35;;
51814;SDS011;37874;53.158;6.766;2022-07-24T13:08:03;2.97;;;1.77;;
51814;SDS011;37874;53.158;6.766;2022-07-24T13:10:29;2.67;;;1.40;;
51814;SDS011;37874;53.158;6.766;2022-07-24T13:12:54;1.90;;;1.25;;
51814;SDS011;37874;53.158;6.766;2022-07-24T13:15:20;2.83;;;1.70;;
51814;SDS011;37874;53.158;6.766;2022-07-24T13:17:45;2.33;;;1.60;;
51814;SDS011;37874;53.158;6.766;2022-07-24T13:20:11;2.00;;;1.40;;
51814;SDS011;37874;53.158;6.766;2022-07-24T13:22:37;3.22;;;1.60;;
51814;SDS011;37874;53.158;6.766;2022-07-24T13:25:02;4.38;;;1.50;;
51814;SDS011;37874;53.158;6.766;2022-07-24T13:27:28;3.40;;;1.30;;
51814;SDS011;37874;53.158;6.766;2022-07-24T13:29:54;2.90;;;1.67;;
51814;SDS011;37874;53.158;6.766;2022-07-24T13:32:20;2.70;;;1.60;;
51814;SDS011;37874;53.158;6.766;2022-07-24T13:34:45;2.67;;;1.60;;
51814;SDS011;37874;53.158;6.766;2022-07-24T13:37:11;4.43;;;1.50;;
51814;SDS011;37874;53.158;6.766;2022-07-24T13:39:37;3.40;;;1.33;;
51814;SDS011;37874;53.158;6.766;2022-07-24T13:42:05;2.30;;;1.58;;
51814;SDS011;37874;53.158;6.766;2022-07-24T13:44:31;2.15;;;1.50;;
51814;SDS011;37874;53.158;6.766;2022-07-24T13:46:57;3.10;;;1.33;;
51814;SDS011;37874;53.158;6.766;2022-07-24T13:49:22;2.20;;;1.40;;
51814;SDS011;37874;53.158;6.766;2022-07-24T13:51:48;4.80;;;1.48;;
51814;SDS011;37874;53.158;6.766;2022-07-24T13:54:14;2.30;;;1.50;;
51814;SDS011;37874;53.158;6.766;2022-07-24T13:56:40;3.78;;;1.67;;
51814;SDS011;37874;53.158;6.766;2022-07-24T13:59:05;3.22;;;1.35;;
51814;SDS011;37874;53.158;6.766;2022-07-24T14:01:31;3.40;;;1.63;;
51814;SDS011;37874;53.158;6.766;2022-07-24T14:03:57;2.08;;;1.60;;
51814;SDS011;37874;53.158;6.766;2022-07-24T14:06:23;5.05;;;1.63;;
51814;SDS011;37874;53.158;6.766;2022-07-24T14:08:49;3.55;;;1.60;;
51814;SDS011;37874;53.158;6.766;2022-07-24T14:11:14;2.90;;;1.60;;
51814;SDS011;37874;53.158;6.766;2022-07-24T14:13:40;2.88;;;1.55;;
51814;SDS011;37874;53.158;6.766;2022-07-24T14:16:06;2.25;;;1.60;;
51814;SDS011;37874;53.158;6.766;2022-07-24T14:18:31;2.25;;;1.42;;
51814;SDS011;37874;53.158;6.766;2022-07-24T14:20:57;3.70;;;1.60;;
51814;SDS011;37874;53.158;6.766;2022-07-24T14:23:23;2.17;;;1.30;;
51814;SDS011;37874;53.158;6.766;2022-07-24T14:25:49;2.35;;;1.80;;
51814;SDS011;37874;53.158;6.766;2022-07-24T14:28:14;2.28;;;1.50;;
51814;SDS011;37874;53.158;6.766;2022-07-24T14:30:40;2.72;;;1.25;;
51814;SDS011;37874;53.158;6.766;2022-07-24T14:33:06;2.78;;;1.75;;
51814;SDS011;37874;53.158;6.766;2022-07-24T14:35:32;2.40;;;1.70;;
51814;SDS011;37874;53.158;6.766;2022-07-24T14:37:58;3.25;;;1.60;;
51814;SDS011;37874;53.158;6.766;2022-07-24T14:40:24;2.67;;;1.67;;
51814;SDS011;37874;53.158;6.766;2022-07-24T14:42:50;2.92;;;1.65;;
51814;SDS011;37874;53.158;6.766;2022-07-24T14:45:16;2.83;;;1.70;;
51814;SDS011;37874;53.158;6.766;2022-07-24T14:47:42;2.72;;;1.90;;
51814;SDS011;37874;53.158;6.766;2022-07-24T14:50:08;2.60;;;1.58;;
51814;SDS011;37874;53.158;6.766;2022-07-24T14:52:37;2.67;;;1.67;;
51814;SDS011;37874;53.158;6.766;2022-07-24T14:55:03;2.72;;;1.60;;
51814;SDS011;37874;53.158;6.766;2022-07-24T14:57:30;2.58;;;1.52;;
51814;SDS011;37874;53.158;6.766;2022-07-24T14:59:56;2.38;;;1.55;;
51814;SDS011;37874;53.158;6.766;2022-07-24T15:02:21;2.40;;;1.58;;
51814;SDS011;37874;53.158;6.766;2022-07-24T15:04:47;2.55;;;1.60;;
51814;SDS011;37874;53.158;6.766;2022-07-24T15:07:13;1.65;;;1.10;;
51814;SDS011;37874;53.158;6.766;2022-07-24T15:09:38;2.13;;;1.38;;
51814;SDS011;37874;53.158;6.766;2022-07-24T15:12:04;2.75;;;1.50;;
51814;SDS011;37874;53.158;6.766;2022-07-24T15:14:30;2.75;;;1.50;;
51814;SDS011;37874;53.158;6.766;2022-07-24T15:16:55;2.08;;;1.33;;
51814;SDS011;37874;53.158;6.766;2022-07-24T15:19:21;2.00;;;1.30;;
51814;SDS011;37874;53.158;6.766;2022-07-24T15:21:47;2.63;;;1.50;;
51814;SDS011;37874;53.158;6.766;2022-07-24T15:24:12;2.75;;;1.70;;
51814;SDS011;37874;53.158;6.766;2022-07-24T15:26:38;3.20;;;1.42;;
51814;SDS011;37874;53.158;6.766;2022-07-24T15:29:04;1.83;;;1.13;;
51814;SDS011;37874;53.158;6.766;2022-07-24T15:31:30;2.67;;;1.50;;
51814;SDS011;37874;53.158;6.766;2022-07-24T15:33:56;2.97;;;1.60;;
51814;SDS011;37874;53.158;6.766;2022-07-24T15:36:22;2.45;;;1.58;;
51814;SDS011;37874;53.158;6.766;2022-07-24T15:38:47;3.08;;;1.65;;
51814;SDS011;37874;53.158;6.766;2022-07-24T15:41:14;4.15;;;1.60;;
51814;SDS011;37874;53.158;6.766;2022-07-24T15:43:40;3.53;;;1.50;;
51814;SDS011;37874;53.158;6.766;2022-07-24T15:46:05;2.30;;;1.23;;
51814;SDS011;37874;53.158;6.766;2022-07-24T15:48:31;2.88;;;1.50;;
51814;SDS011;37874;53.158;6.766;2022-07-24T15:50:57;4.80;;;1.25;;
51814;SDS011;37874;53.158;6.766;2022-07-24T15:53:22;2.10;;;1.40;;
51814;SDS011;37874;53.158;6.766;2022-07-24T15:55:48;2.80;;;1.30;;
51814;SDS011;37874;53.158;6.766;2022-07-24T15:58:14;2.88;;;1.70;;
51814;SDS011;37874;53.158;6.766;2022-07-24T16:00:39;2.80;;;1.40;;
51814;SDS011;37874;53.158;6.766;2022-07-24T16:03:05;2.30;;;1.35;;
51814;SDS011;37874;53.158;6.766;2022-07-24T16:05:30;2.22;;;1.30;;
51814;SDS011;37874;53.158;6.766;2022-07-24T16:07:56;2.50;;;1.42;;
51814;SDS011;37874;53.158;6.766;2022-07-24T16:10:22;2.70;;;1.40;;
51814;SDS011;37874;53.158;6.766;2022-07-24T16:12:48;3.60;;;1.60;;
51814;SDS011;37874;53.158;6.766;2022-07-24T16:15:14;2.17;;;1.40;;
51814;SDS011;37874;53.158;6.766;2022-07-24T16:17:41;3.03;;;1.55;;
51814;SDS011;37874;53.158;6.766;2022-07-24T16:20:07;2.38;;;1.50;;
51814;SDS011;37874;53.158;6.766;2022-07-24T16:22:34;3.65;;;1.60;;
51814;SDS011;37874;53.158;6.766;2022-07-24T16:25:00;2.38;;;1.60;;
51814;SDS011;37874;53.158;6.766;2022-07-24T16:27:27;1.88;;;1.30;;
51814;SDS011;37874;53.158;6.766;2022-07-24T16:29:53;3.35;;;1.27;;
51814;SDS011;37874;53.158;6.766;2022-07-24T16:32:18;2.35;;;1.50;;
51814;SDS011;37874;53.158;6.766;2022-07-24T16:34:44;3.83;;;1.55;;
51814;SDS011;37874;53.158;6.766;2022-07-24T16:37:10;2.28;;;1.40;;
51814;SDS011;37874;53.158;6.766;2022-07-24T16:39:36;2.03;;;1.33;;
51814;SDS011;37874;53.158;6.766;2022-07-24T16:42:02;2.88;;;1.33;;
51814;SDS011;37874;53.158;6.766;2022-07-24T16:44:28;2.08;;;1.30;;
51814;SDS011;37874;53.158;6.766;2022-07-24T16:46:54;2.00;;;1.50;;
51814;SDS011;37874;53.158;6.766;2022-07-24T16:49:19;2.22;;;1.30;;
51814;SDS011;37874;53.158;6.766;2022-07-24T16:51:45;4.32;;;1.40;;
51814;SDS011;37874;53.158;6.766;2022-07-24T16:54:11;3.60;;;1.70;;
51814;SDS011;37874;53.158;6.766;2022-07-24T16:56:37;3.15;;;1.40;;
51814;SDS011;37874;53.158;6.766;2022-07-24T16:59:02;2.08;;;1.40;;
51814;SDS011;37874;53.158;6.766;2022-07-24T17:01:28;1.80;;;1.25;;
51814;SDS011;37874;53.158;6.766;2022-07-24T17:03:54;2.88;;;1.27;;
51814;SDS011;37874;53.158;6.766;2022-07-24T17:06:19;2.00;;;1.40;;
51814;SDS011;37874;53.158;6.766;2022-07-24T17:08:45;2.67;;;1.60;;
51814;SDS011;37874;53.158;6.766;2022-07-24T17:11:11;2.33;;;1.42;;
51814;SDS011;37874;53.158;6.766;2022-07-24T17:13:36;3.15;;;1.60;;